INFORMACIÓN METAR y TAF
METAR FOR LEBZ
ADDS - METARS form results

(0856 UTC 15 April 2021)
Data provider http://aviationweather.gov/metar/data/
 
METAR text: LEBZ 150830Z VRB02KT 9999 RA SCT004 SCT008 BKN046 15/15 Q1014
Conditions at: LEBZ (TALAVERA AB/BADA, ES) observed 0830 UTC 15 April 2021
Temperature: 15.0°C (59°F)
Dewpoint: 15.0°C (59°F) [RH = 100%]
Pressure (altimeter): 29.94 inches Hg (1014.0 mb)
Winds: variable direction winds at 2 MPH (2 knots; 1.0 m/s)
Visibility: 6 or more miles (10+ km)
Ceiling: 4600 feet AGL
Clouds: scattered clouds at 400 feet AGL
scattered clouds at 800 feet AGL
broken clouds at 4600 feet AGL
Weather: RA  (moderate rain)

METAR text: LEBZ 150800Z VRB01KT 9999 -RA FEW003 BKN047 15/14 Q1013
Conditions at: LEBZ (TALAVERA AB/BADA, ES) observed 0800 UTC 15 April 2021
Temperature: 15.0°C (59°F)
Dewpoint: 14.0°C (57°F) [RH = 94%]
Pressure (altimeter): 29.91 inches Hg (1013.0 mb)
Winds: variable direction winds at 1 MPH (1 knots; 0.5 m/s)
Visibility: 6 or more miles (10+ km)
Ceiling: 4700 feet AGL
Clouds: few clouds at 300 feet AGL
broken clouds at 4700 feet AGL
Weather: -RA  (light rain)

Forecast for: LEBZ (TALAVERA AB/BADA, ES)
Text: TAF LEBZ 150500Z 1506/1606 28004KT 9999 SCT020 SCT040 TX18/1516Z TN12/1606Z
Forecast period: 0600 UTC 15 April 2021 to 0600 UTC 16 April 2021
Forecast type: FROM: standard forecast or significant change
Winds: from the W (280 degrees) at 5 MPH (4 knots; 2.1 m/s)
Visibility: 6 or more miles (10+ km)
Ceiling: at least 12,000 feet AGL
Clouds: scattered clouds at 2000 feet AGL
scattered clouds at 4000 feet AGL
Weather: no significant weather forecast for this period
Text: TEMPO 1506/1519 3000 SHRA BKN010 SCT035TCU
Forecast period: 0600 to 1900 UTC 15 April 2021
Forecast type: TEMPORARY: The following changes expected for less than half the time period
Visibility: 1.86 miles (2.99 km)
Ceiling: 1000 feet AGL
Clouds: broken clouds at 1000 feet AGL
scattered clouds at 3500 feet AGL
Weather: SHRA  (rain showers)
Text: PROB40
Forecast period: 2300 UTC 15 April 2021 to 0600 UTC 16 April 2021
Forecast type: TEMPORARY: The following changes expected for less than half the time period
Visibility: 0.37 miles (0.60 km)
Ceiling: indefinite ceiling with vertical visibility of 100 feet AGL
Clouds: obscured sky
Weather: FG  (fog)

 MAPA DE AEROPUERTO

 INFORMACIÓN DE PISTA
Pista 13 Longitud 9350 ft Ancho 197 ft
Elevación 579 ft Umbral desplazado 0 ft Rumbo de pista 126
Pista 31 Longitud 9350 ft Ancho 197 ft
Elevación 609 ft Umbral desplazado 0 ft Rumbo de pista 306

 FRECUANCIAS DEL AEROPUERTO
Tipo APP Nombre APP Frecuencia 139.3 MHZ
Tipo TWR Nombre BADAJOZ TW Frecuencia 122.1 MHZ

 RADIO AYUDAS DEL AEROPUERTO
Tipo NDB Nombre Badajoz Frecuencia 298 KHZ
Tipo TACAN Nombre Talavera Frecuencia 108800 KHZ
Tipo VOR-DME Nombre Badajoz Frecuencia 116800 KHZ



Powered by Virtual Airlines Manager [v2.6.2]